createdAt,value
2022-11-25T00:01:34.205Z,221.73
2022-11-25T00:04:01.927Z,191.90
2022-11-25T00:06:36.448Z,185.33
2022-11-25T00:09:07.619Z,235.83
2022-11-25T00:11:36.747Z,238.30
2022-11-25T00:14:04.081Z,259.97
2022-11-25T00:16:31.284Z,301.23
2022-11-25T00:18:59.175Z,223.13
2022-11-25T00:21:29.103Z,219.33
2022-11-25T00:23:59.666Z,200.40
2022-11-25T00:26:28.662Z,207.73
2022-11-25T00:28:58.083Z,213.70
2022-11-25T00:31:29.326Z,230.37
2022-11-25T00:33:56.576Z,216.20
2022-11-25T00:36:27.830Z,235.83
2022-11-25T00:38:59.872Z,243.63
2022-11-25T00:41:47.332Z,214.70
2022-11-25T00:44:37.008Z,237.23
2022-11-25T00:47:12.350Z,218.90
2022-11-25T00:49:42.413Z,214.93
2022-11-25T00:52:14.556Z,229.00
2022-11-25T00:54:41.441Z,235.97
2022-11-25T00:57:08.368Z,233.53
2022-11-25T00:59:35.347Z,229.20
2022-11-25T01:02:02.400Z,223.63
2022-11-25T01:04:29.375Z,201.10
2022-11-25T01:06:56.949Z,207.90
2022-11-25T01:09:24.199Z,200.53
2022-11-25T01:11:51.787Z,191.60
2022-11-25T01:14:20.442Z,196.60
2022-11-25T01:16:48.341Z,214.57
2022-11-25T01:19:16.250Z,191.20
2022-11-25T01:21:43.442Z,218.57
2022-11-25T01:24:14.560Z,217.37
2022-11-25T01:26:41.811Z,237.43
2022-11-25T01:29:15.845Z,185.47
2022-11-25T01:31:43.681Z,181.10
2022-11-25T01:34:18.601Z,199.37
2022-11-25T01:36:45.984Z,189.10
2022-11-25T01:39:30.459Z,197.07
2022-11-25T01:42:00.309Z,198.07
2022-11-25T01:44:30.943Z,201.20
2022-11-25T01:47:04.040Z,202.67
2022-11-25T01:49:43.877Z,209.43
2022-11-25T01:52:43.728Z,201.03
2022-11-25T01:55:20.554Z,207.03
2022-11-25T01:57:52.462Z,217.63
2022-11-25T02:00:20.187Z,198.57
2022-11-25T02:02:50.813Z,228.13
2022-11-25T02:05:22.150Z,225.77
2022-11-25T02:07:50.058Z,196.27
2022-11-25T02:10:32.278Z,194.63
2022-11-25T02:12:59.978Z,221.17
2022-11-25T02:15:28.983Z,817.57
2022-11-25T02:17:56.272Z,1461.53
2022-11-25T02:20:24.591Z,726.80
2022-11-25T02:23:11.784Z,538.77
2022-11-25T02:25:40.895Z,295.67
2022-11-25T02:28:20.142Z,243.70
2022-11-25T02:30:47.478Z,205.40
2022-11-25T02:33:15.842Z,253.50
2022-11-25T02:36:05.885Z,201.57
2022-11-25T02:39:04.078Z,191.80
2022-11-25T02:41:41.491Z,215.20
2022-11-25T02:44:09.239Z,193.77
2022-11-25T02:46:36.345Z,197.10
2022-11-25T02:49:09.265Z,189.37
2022-11-25T02:51:39.691Z,204.27
2022-11-25T02:54:08.786Z,225.03
2022-11-25T02:56:36.766Z,225.97
2022-11-25T02:59:04.715Z,206.97
2022-11-25T03:01:33.113Z,209.57
2022-11-25T03:04:00.547Z,208.70
2022-11-25T03:06:29.687Z,209.50
2022-11-25T03:08:57.643Z,190.50
2022-11-25T03:11:44.930Z,231.20
2022-11-25T03:14:12.730Z,205.20
2022-11-25T03:16:39.973Z,211.00
2022-11-25T03:19:08.553Z,202.93
2022-11-25T03:21:35.672Z,232.03
2022-11-25T03:24:02.607Z,243.57
2022-11-25T03:26:29.590Z,212.90
2022-11-25T03:28:56.554Z,250.40
2022-11-25T03:31:23.808Z,228.13
2022-11-25T03:33:50.742Z,207.40
2022-11-25T03:36:17.706Z,214.00
2022-11-25T03:38:44.589Z,197.70
2022-11-25T03:41:11.536Z,245.13
2022-11-25T03:43:38.521Z,231.37
2022-11-25T03:46:05.851Z,204.23
2022-11-25T03:48:32.817Z,220.07
2022-11-25T03:50:59.723Z,219.93
2022-11-25T03:53:28.276Z,225.00
2022-11-25T03:55:55.196Z,213.83
2022-11-25T03:58:25.241Z,214.27
2022-11-25T04:00:52.655Z,206.33
2022-11-25T04:03:19.706Z,229.97
2022-11-25T04:05:46.603Z,234.37
2022-11-25T04:08:13.824Z,209.30
2022-11-25T04:10:41.172Z,213.23
2022-11-25T04:13:09.824Z,232.60
2022-11-25T04:15:49.371Z,227.60
2022-11-25T04:18:19.175Z,213.63
2022-11-25T04:20:48.161Z,229.63
2022-11-25T04:23:15.337Z,216.80
2022-11-25T04:25:51.250Z,232.97
2022-11-25T04:28:26.197Z,302.03
2022-11-25T04:30:53.156Z,203.63
2022-11-25T04:33:20.114Z,208.83
2022-11-25T04:35:48.310Z,198.60
2022-11-25T04:38:15.256Z,234.47
2022-11-25T04:40:43.098Z,224.90
2022-11-25T04:43:13.097Z,247.67
2022-11-25T04:48:37.519Z,229.00
2022-11-25T04:51:04.761Z,223.00
2022-11-25T04:53:32.599Z,198.27
2022-11-25T04:55:59.588Z,202.80
2022-11-25T04:58:46.647Z,217.10
2022-11-25T05:01:14.399Z,206.93
2022-11-25T05:03:54.474Z,220.43
2022-11-25T05:06:24.684Z,212.37
2022-11-25T05:08:52.108Z,235.03
2022-11-25T05:11:20.448Z,240.60
2022-11-25T05:13:47.569Z,221.13
2022-11-25T05:16:14.671Z,213.43
2022-11-25T05:18:41.683Z,235.43
2022-11-25T05:21:08.663Z,212.03
2022-11-25T05:23:40.104Z,227.57
2022-11-25T05:26:07.157Z,229.73
2022-11-25T05:28:40.883Z,223.50
2022-11-25T05:31:07.833Z,235.07
2022-11-25T05:33:34.970Z,211.33
2022-11-25T05:36:04.965Z,214.50
2022-11-25T05:38:40.233Z,222.43
2022-11-25T05:41:11.169Z,218.97
2022-11-25T05:43:40.360Z,230.20
2022-11-25T05:46:09.210Z,244.33
2022-11-25T05:48:40.457Z,305.63
2022-11-25T05:51:09.199Z,309.27
2022-11-25T05:53:36.908Z,270.23
2022-11-25T05:56:06.639Z,240.87
2022-11-25T05:58:52.137Z,270.77
2022-11-25T06:01:19.320Z,328.93
2022-11-25T06:03:47.322Z,268.93
2022-11-25T06:06:16.278Z,260.47
2022-11-25T06:08:43.418Z,226.20
2022-11-25T06:11:17.197Z,239.77
2022-11-25T06:13:45.297Z,267.73
2022-11-25T06:16:20.525Z,271.03
2022-11-25T06:18:51.641Z,208.60
2022-11-25T06:21:19.230Z,278.50
2022-11-25T06:23:46.622Z,218.17
2022-11-25T06:26:20.407Z,211.57
2022-11-25T06:28:48.403Z,244.90
2022-11-25T06:31:19.255Z,224.87
2022-11-25T06:33:56.451Z,249.03
2022-11-25T06:36:23.664Z,221.13
2022-11-25T06:38:53.764Z,213.80
2022-11-25T06:41:22.499Z,212.70
2022-11-25T06:43:49.769Z,215.43
2022-11-25T06:46:24.599Z,234.30
2022-11-25T06:48:53.723Z,291.83
2022-11-25T06:51:21.166Z,295.60
2022-11-25T06:53:48.517Z,249.60
2022-11-25T06:56:22.820Z,255.90
2022-11-25T06:58:50.877Z,283.07
2022-11-25T07:01:24.094Z,272.10
2022-11-25T07:03:54.452Z,209.83
2022-11-25T07:06:22.065Z,235.93
2022-11-25T07:08:49.451Z,288.10
2022-11-25T07:11:26.246Z,262.63
2022-11-25T07:13:57.596Z,223.30
2022-11-25T07:16:25.288Z,275.13
2022-11-25T07:18:52.367Z,291.13
2022-11-25T07:21:24.932Z,248.43
2022-11-25T07:23:53.017Z,415.13
2022-11-25T07:26:24.212Z,254.07
2022-11-25T07:28:54.146Z,256.40
2022-11-25T07:31:33.047Z,247.73
2022-11-25T07:34:04.249Z,376.83
2022-11-25T07:36:33.684Z,250.20
2022-11-25T07:39:07.957Z,299.97
2022-11-25T07:41:35.440Z,272.57
2022-11-25T07:44:05.880Z,276.23
2022-11-25T07:46:47.680Z,269.43
2022-11-25T07:49:25.524Z,276.37
2022-11-25T07:51:59.842Z,261.93
2022-11-25T07:54:27.191Z,266.93
2022-11-25T07:56:54.129Z,295.80
2022-11-25T07:59:23.076Z,244.80
2022-11-25T08:01:55.355Z,210.80
2022-11-25T08:04:23.095Z,267.07
2022-11-25T08:06:52.334Z,217.87
2022-11-25T08:09:22.982Z,272.57
2022-11-25T08:11:50.647Z,278.50
2022-11-25T08:14:17.592Z,266.03
2022-11-25T08:16:45.067Z,254.23
2022-11-25T08:19:15.550Z,244.27
2022-11-25T08:21:42.942Z,274.30
2022-11-25T08:24:19.102Z,295.80
2022-11-25T08:26:46.505Z,220.97
2022-11-25T08:29:16.559Z,237.20
2022-11-25T08:31:43.851Z,259.77
2022-11-25T08:34:21.141Z,265.87
2022-11-25T08:36:50.776Z,250.83
2022-11-25T08:39:50.541Z,250.03
2022-11-25T08:42:07.673Z,258.93
2022-11-25T08:44:35.260Z,248.97
2022-11-25T08:47:02.256Z,272.70
2022-11-25T08:49:34.781Z,255.70
2022-11-25T08:52:05.889Z,236.70
2022-11-25T08:54:32.839Z,190.97
2022-11-25T08:57:00.777Z,243.27
2022-11-25T08:59:27.747Z,243.17
2022-11-25T09:01:55.591Z,229.90
2022-11-25T09:04:22.611Z,253.93
2022-11-25T09:06:49.587Z,265.63
2022-11-25T09:09:16.581Z,263.80
2022-11-25T09:11:43.570Z,260.43
2022-11-25T09:14:10.600Z,270.83
2022-11-25T09:16:37.643Z,243.07
2022-11-25T09:19:04.709Z,200.77
2022-11-25T09:21:31.592Z,211.57
2022-11-25T09:23:58.746Z,221.90
2022-11-25T09:26:28.792Z,235.47
2022-11-25T09:28:56.529Z,275.27
2022-11-25T09:31:24.040Z,247.07
2022-11-25T09:33:51.333Z,257.10
2022-11-25T09:36:20.449Z,274.13
2022-11-25T09:38:47.743Z,272.70
2022-11-25T09:42:06.536Z,250.80
2022-11-25T09:45:13.251Z,274.57
2022-11-25T09:48:33.416Z,220.80
2022-11-25T09:52:04.434Z,317.77
2022-11-25T09:54:40.183Z,219.63
2022-11-25T09:57:38.773Z,227.60
2022-11-25T10:00:10.551Z,281.00
2022-11-25T10:03:02.474Z,239.70
2022-11-25T10:05:36.192Z,205.53
2022-11-25T10:08:16.444Z,245.10
2022-11-25T10:10:51.110Z,217.53
2022-11-25T10:14:01.195Z,277.63
2022-11-25T10:16:52.821Z,240.13
2022-11-25T10:19:40.996Z,217.13
2022-11-25T10:22:36.800Z,264.90
2022-11-25T10:25:21.864Z,214.93
2022-11-25T10:28:21.654Z,210.43
2022-11-25T10:31:04.080Z,262.20
2022-11-25T10:33:43.558Z,261.27
2022-11-25T10:36:28.100Z,217.17
2022-11-25T10:39:07.888Z,278.97
2022-11-25T10:41:57.607Z,218.63
2022-11-25T10:44:31.745Z,290.23
2022-11-25T10:47:37.608Z,218.03
2022-11-25T10:50:29.097Z,223.67
2022-11-25T10:53:02.282Z,243.17
2022-11-25T10:55:32.420Z,225.57
2022-11-25T10:58:20.079Z,236.27
2022-11-25T11:00:47.038Z,217.87
2022-11-25T11:03:25.843Z,238.67
2022-11-25T11:05:54.562Z,247.67
2022-11-25T11:08:25.165Z,232.47
2022-11-25T11:11:30.958Z,202.83
2022-11-25T11:14:20.606Z,232.97
2022-11-25T11:16:56.705Z,343.97
2022-11-25T11:19:29.800Z,236.53
2022-11-25T11:21:58.165Z,222.40
2022-11-25T11:24:35.810Z,230.90
2022-11-25T11:27:09.623Z,215.20
2022-11-25T11:29:36.587Z,210.27
2022-11-25T11:32:06.215Z,206.90
2022-11-25T11:34:50.632Z,231.53
2022-11-25T11:37:34.230Z,262.20
2022-11-25T11:40:47.308Z,260.27
2022-11-25T11:43:56.720Z,225.17
2022-11-25T11:47:00.760Z,200.20
2022-11-25T11:50:04.117Z,211.60
2022-11-25T11:53:06.574Z,323.53
2022-11-25T11:56:39.071Z,252.67
2022-11-25T11:59:36.440Z,274.93
2022-11-25T12:02:15.119Z,263.07
2022-11-25T12:05:06.319Z,239.47
2022-11-25T12:07:51.835Z,227.87
2022-11-25T12:10:27.850Z,230.63
2022-11-25T12:13:30.636Z,319.30
2022-11-25T12:16:08.062Z,255.43
2022-11-25T12:18:54.965Z,266.07
2022-11-25T12:22:12.282Z,243.37
2022-11-25T12:24:58.326Z,243.93
2022-11-25T12:27:35.006Z,226.87
2022-11-25T12:30:12.381Z,241.67
2022-11-25T12:33:13.279Z,269.87
2022-11-25T12:36:00.026Z,259.93
2022-11-25T12:38:53.925Z,250.50
2022-11-25T12:41:44.831Z,275.07
2022-11-25T12:44:28.552Z,221.30
2022-11-25T12:46:57.145Z,236.47
2022-11-25T12:49:30.598Z,221.87
2022-11-25T12:52:30.609Z,255.53
2022-11-25T12:55:27.561Z,246.00
2022-11-25T12:58:30.102Z,208.00
2022-11-25T13:01:45.567Z,268.67
2022-11-25T13:04:34.042Z,228.00
2022-11-25T13:07:25.957Z,301.77
2022-11-25T13:10:49.097Z,229.20
2022-11-25T13:13:34.666Z,256.67
2022-11-25T13:16:06.664Z,234.83
2022-11-25T13:18:38.566Z,232.67
2022-11-25T13:21:09.421Z,252.53
2022-11-25T13:23:57.384Z,257.27
2022-11-25T13:26:30.010Z,250.33
2022-11-25T13:28:57.480Z,330.63
2022-11-25T13:31:32.246Z,313.10
2022-11-25T13:34:09.335Z,280.67
2022-11-25T13:36:51.342Z,354.37
2022-11-25T13:39:24.380Z,255.70
2022-11-25T13:42:19.247Z,277.73
2022-11-25T13:44:54.619Z,266.93
2022-11-25T13:47:44.819Z,288.77
2022-11-25T13:50:21.744Z,251.50
2022-11-25T13:53:02.618Z,306.83
2022-11-25T13:55:42.954Z,272.23
2022-11-25T13:58:09.694Z,303.43
2022-11-25T14:00:36.521Z,265.07
2022-11-25T14:03:18.739Z,314.63
2022-11-25T14:06:32.452Z,356.37
2022-11-25T14:09:25.176Z,286.97
2022-11-25T14:12:33.919Z,320.77
2022-11-25T14:15:26.157Z,282.30
2022-11-25T14:19:16.845Z,291.20
2022-11-25T14:22:11.003Z,341.43
2022-11-25T14:24:50.371Z,325.23
2022-11-25T14:27:29.191Z,404.27
2022-11-25T14:30:01.242Z,349.60
2022-11-25T14:32:49.595Z,365.73
2022-11-25T14:35:45.783Z,327.50
2022-11-25T14:38:22.400Z,333.53
2022-11-25T14:41:17.255Z,339.33
2022-11-25T14:43:52.498Z,302.23
2022-11-25T14:46:23.339Z,284.17
2022-11-25T14:48:59.554Z,291.43
2022-11-25T14:51:37.096Z,335.70
2022-11-25T14:54:09.039Z,351.10
2022-11-25T14:56:37.297Z,288.33
2022-11-25T14:59:04.478Z,340.27
2022-11-25T15:01:34.120Z,294.40
2022-11-25T15:04:05.801Z,348.63
2022-11-25T15:06:39.684Z,267.07
2022-11-25T15:09:30.651Z,320.07
2022-11-25T15:12:01.429Z,334.00
2022-11-25T15:14:30.689Z,328.97
2022-11-25T15:16:58.794Z,299.87
2022-11-25T15:19:33.764Z,270.57
2022-11-25T15:22:22.537Z,280.40
2022-11-25T15:24:55.527Z,262.57
2022-11-25T15:27:28.585Z,261.63
2022-11-25T15:29:57.475Z,260.10
2022-11-25T15:32:31.841Z,239.87
2022-11-25T15:35:01.177Z,280.83
2022-11-25T15:37:28.948Z,269.63
2022-11-25T15:40:40.739Z,324.70
2022-11-25T15:43:25.988Z,355.57
2022-11-25T15:45:57.738Z,267.60
2022-11-25T15:48:42.639Z,272.40
2022-11-25T15:51:33.016Z,253.90
2022-11-25T15:54:30.436Z,369.27
2022-11-25T15:57:23.513Z,279.20
2022-11-25T15:59:56.081Z,261.53
2022-11-25T16:02:42.087Z,308.40
2022-11-25T16:05:16.606Z,282.33
2022-11-25T16:07:49.901Z,272.03
2022-11-25T16:10:39.321Z,331.57
2022-11-25T16:13:22.081Z,357.83
2022-11-25T16:16:07.916Z,401.73
2022-11-25T16:19:06.583Z,317.13
2022-11-25T16:21:36.603Z,291.50
2022-11-25T16:24:16.430Z,311.20
2022-11-25T16:27:00.974Z,332.83
2022-11-25T16:29:38.150Z,366.20
2022-11-25T16:32:17.945Z,286.00
2022-11-25T16:34:45.531Z,266.67
2022-11-25T16:37:12.614Z,333.73
2022-11-25T16:39:39.963Z,304.17
2022-11-25T16:42:07.991Z,372.63
2022-11-25T16:44:37.422Z,298.40
2022-11-25T16:47:04.374Z,333.33
2022-11-25T16:49:32.045Z,314.50
2022-11-25T16:51:59.021Z,317.87
2022-11-25T16:54:25.912Z,285.17
2022-11-25T16:56:54.828Z,294.07
2022-11-25T16:59:30.290Z,297.17
2022-11-25T17:01:58.377Z,349.73
2022-11-25T17:04:25.358Z,379.33
2022-11-25T17:07:24.367Z,335.80
2022-11-25T17:09:39.792Z,324.83
2022-11-25T17:12:14.620Z,345.57
2022-11-25T17:14:42.067Z,387.10
2022-11-25T17:17:24.414Z,292.90
2022-11-25T17:19:52.970Z,386.07
2022-11-25T17:22:25.000Z,348.83
2022-11-25T17:24:52.098Z,294.23
2022-11-25T17:27:32.338Z,331.40
2022-11-25T17:30:03.564Z,295.17
2022-11-25T17:32:31.455Z,289.27
2022-11-25T17:34:58.521Z,285.83
2022-11-25T17:37:25.907Z,298.23
2022-11-25T17:39:53.710Z,288.67
2022-11-25T17:42:32.988Z,307.10
2022-11-25T17:45:01.030Z,332.70
2022-11-25T17:47:27.970Z,319.03
2022-11-25T17:49:55.344Z,355.13
2022-11-25T17:52:22.346Z,357.63
2022-11-25T17:54:49.252Z,338.70
2022-11-25T17:57:20.992Z,255.37
2022-11-25T17:59:48.469Z,282.20
2022-11-25T18:02:21.352Z,280.03
2022-11-25T18:04:49.001Z,304.20
2022-11-25T18:07:16.098Z,284.40
2022-11-25T18:09:44.482Z,320.70
2022-11-25T18:12:27.877Z,273.80
2022-11-25T18:14:55.899Z,352.27
2022-11-25T18:17:23.348Z,284.00
2022-11-25T18:19:54.943Z,290.33
2022-11-25T18:22:24.154Z,305.63
2022-11-25T18:24:52.485Z,318.93
2022-11-25T18:27:27.393Z,285.47
2022-11-25T18:29:56.386Z,276.33
2022-11-25T18:32:24.898Z,306.43
2022-11-25T18:34:52.375Z,297.47
2022-11-25T18:37:19.319Z,294.40
2022-11-25T18:39:46.646Z,278.00
2022-11-25T18:42:25.769Z,291.93
2022-11-25T18:44:54.819Z,289.43
2022-11-25T18:47:21.789Z,270.53
2022-11-25T18:49:53.873Z,277.77
2022-11-25T18:52:23.372Z,283.93
2022-11-25T18:54:50.448Z,269.83
2022-11-25T18:57:17.418Z,267.63
2022-11-25T18:59:45.339Z,260.90
2022-11-25T19:02:18.143Z,290.07
2022-11-25T19:04:45.065Z,258.57
2022-11-25T19:07:12.093Z,276.93
2022-11-25T19:09:39.032Z,288.63
2022-11-25T19:12:07.221Z,262.30
2022-11-25T19:14:37.914Z,303.50
2022-11-25T19:17:18.216Z,300.37
2022-11-25T19:19:46.665Z,301.63
2022-11-25T19:22:15.718Z,282.00
2022-11-25T19:24:43.569Z,287.27
2022-11-25T19:27:18.826Z,314.00
2022-11-25T19:29:47.574Z,300.37
2022-11-25T19:32:29.664Z,309.90
2022-11-25T19:35:01.969Z,263.23
2022-11-25T19:37:30.755Z,281.13
2022-11-25T19:39:57.806Z,256.70
2022-11-25T19:42:25.758Z,255.87
2022-11-25T19:44:53.043Z,284.87
2022-11-25T19:47:26.205Z,257.40
2022-11-25T19:50:00.659Z,262.50
2022-11-25T19:52:34.998Z,273.80
2022-11-25T19:55:12.006Z,305.57
2022-11-25T19:57:38.904Z,267.97
2022-11-25T20:00:07.720Z,295.70
2022-11-25T20:02:36.315Z,285.23
2022-11-25T20:05:04.999Z,300.40
2022-11-25T20:07:32.440Z,290.57
2022-11-25T20:10:24.066Z,292.07
2022-11-25T20:12:52.081Z,321.53
2022-11-25T20:15:19.758Z,271.70
2022-11-25T20:17:54.072Z,269.47
2022-11-25T20:20:28.686Z,271.87
2022-11-25T20:23:28.642Z,271.70
2022-11-25T20:25:56.328Z,287.27
2022-11-25T20:28:30.127Z,308.30
2022-11-25T20:31:17.513Z,307.70
2022-11-25T20:33:44.453Z,303.50
2022-11-25T20:36:16.225Z,335.60
2022-11-25T20:38:50.643Z,266.70
2022-11-25T20:41:20.603Z,290.97
2022-11-25T20:43:51.224Z,286.37
2022-11-25T20:46:26.292Z,284.53
2022-11-25T20:49:16.893Z,271.10
2022-11-25T20:51:43.889Z,299.37
2022-11-25T20:54:11.672Z,304.13
2022-11-25T20:56:38.574Z,329.23
2022-11-25T20:59:20.642Z,325.03
2022-11-25T21:01:49.349Z,310.27
2022-11-25T21:04:16.969Z,318.93
2022-11-25T21:06:44.598Z,344.37
2022-11-25T21:09:20.790Z,321.00
2022-11-25T21:11:48.342Z,318.17
2022-11-25T21:14:18.047Z,312.63
2022-11-25T21:16:45.896Z,303.50
2022-11-25T21:19:13.259Z,322.87
2022-11-25T21:21:44.543Z,330.57
2022-11-25T21:24:37.211Z,322.83
2022-11-25T21:27:14.128Z,297.77
2022-11-25T21:29:43.930Z,292.70
2022-11-25T21:32:20.048Z,270.60
2022-11-25T21:34:47.126Z,271.80
2022-11-25T21:37:14.469Z,276.10
2022-11-25T21:39:42.258Z,281.10
2022-11-25T21:42:19.874Z,297.43
2022-11-25T21:44:48.231Z,264.67
2022-11-25T21:47:22.968Z,306.10
2022-11-25T21:49:50.564Z,305.70
2022-11-25T21:52:18.392Z,359.67
2022-11-25T21:54:45.624Z,336.30
2022-11-25T21:57:24.101Z,292.23
2022-11-25T21:59:51.004Z,355.53
2022-11-25T22:02:24.367Z,307.20
2022-11-25T22:04:52.008Z,299.67
2022-11-25T22:07:18.958Z,287.17
2022-11-25T22:09:46.357Z,311.80
2022-11-25T22:12:30.805Z,267.83
2022-11-25T22:14:59.563Z,307.77
2022-11-25T22:17:27.031Z,284.20
2022-11-25T22:19:54.325Z,275.43
2022-11-25T22:22:21.329Z,306.83
2022-11-25T22:24:48.228Z,314.30
2022-11-25T22:27:25.173Z,315.50
2022-11-25T22:29:53.106Z,330.47
2022-11-25T22:32:20.033Z,324.10
2022-11-25T22:34:46.930Z,288.83
2022-11-25T22:37:19.488Z,324.83
2022-11-25T22:39:46.509Z,324.40
2022-11-25T22:42:28.593Z,287.10
2022-11-25T22:44:57.666Z,312.80
2022-11-25T22:47:36.379Z,301.40
2022-11-25T22:50:15.242Z,295.97
2022-11-25T22:52:42.135Z,281.47
2022-11-25T22:55:21.578Z,310.10
2022-11-25T22:57:50.892Z,316.27
2022-11-25T23:00:27.611Z,285.60
2022-11-25T23:02:57.108Z,297.80
2022-11-25T23:05:44.646Z,282.50
2022-11-25T23:08:18.356Z,285.40
2022-11-25T23:10:46.336Z,269.60
2022-11-25T23:13:14.599Z,261.23
2022-11-25T23:15:59.936Z,280.53
2022-11-25T23:18:38.635Z,258.43
2022-11-25T23:21:07.427Z,286.23
2022-11-25T23:23:34.716Z,272.80
2022-11-25T23:26:01.626Z,332.43
2022-11-25T23:28:28.529Z,330.87
2022-11-25T23:30:58.714Z,273.83
2022-11-25T23:33:43.241Z,295.80
2022-11-25T23:36:22.451Z,309.70
2022-11-25T23:38:56.666Z,334.87
2022-11-25T23:41:33.580Z,355.70
2022-11-25T23:44:16.282Z,299.87
2022-11-25T23:46:44.297Z,291.87
2022-11-25T23:49:27.395Z,289.70
2022-11-25T23:52:06.000Z,324.97
2022-11-25T23:54:45.241Z,284.57
2022-11-25T23:57:17.782Z,277.23
2022-11-25T23:59:45.343Z,245.73
